createdAt,value
2023-04-24T00:00:21.595Z,99989.77
2023-04-24T00:02:51.918Z,100000.81
2023-04-24T00:05:22.096Z,100000.81
2023-04-24T00:07:56.119Z,99990.23
2023-04-24T00:10:25.928Z,99992.05
2023-04-24T00:12:56.044Z,99994.44
2023-04-24T00:15:25.721Z,99990.98
2023-04-24T00:17:55.608Z,99990.55
2023-04-24T00:20:25.377Z,99993.85
2023-04-24T00:22:55.568Z,99999.05
2023-04-24T00:25:25.197Z,100000.33
2023-04-24T00:27:55.305Z,99992.86
2023-04-24T00:30:25.315Z,100007.09
2023-04-24T00:32:55.634Z,100002.03
2023-04-24T00:35:25.868Z,100005.99
2023-04-24T00:37:56.231Z,100009.16
2023-04-24T00:40:25.751Z,100001.98
2023-04-24T00:42:56.675Z,100006.84
2023-04-24T00:45:27.521Z,100007.61
2023-04-24T00:47:58.129Z,100007.61
2023-04-24T00:50:28.055Z,100008.84
2023-04-24T00:52:59.180Z,100010.98
2023-04-24T00:55:29.448Z,100003.89
2023-04-24T00:58:00.381Z,100011.73
2023-04-24T01:00:31.022Z,100004.84
2023-04-24T01:03:03.623Z,100009.56
2023-04-24T01:05:35.241Z,100004.24
2023-04-24T01:08:05.612Z,100007.37
2023-04-24T01:10:36.565Z,100003.95
2023-04-24T01:13:06.751Z,100005.30
2023-04-24T01:15:37.355Z,100001.08
2023-04-24T01:18:07.678Z,100008.41
2023-04-24T01:20:40.269Z,100010.53
2023-04-24T01:23:10.632Z,100013.52
2023-04-24T01:25:40.766Z,100016.61
2023-04-24T01:28:11.240Z,100015.09
2023-04-24T01:30:41.282Z,100014.63
2023-04-24T01:33:11.651Z,100012.72
2023-04-24T01:35:42.047Z,100012.56
2023-04-24T01:38:11.981Z,100015.91
2023-04-24T01:40:42.258Z,100012.63
2023-04-24T01:43:13.048Z,100010.35
2023-04-24T01:45:42.907Z,100015.22
2023-04-24T01:48:14.588Z,100014.62
2023-04-24T01:50:44.528Z,100013.50
2023-04-24T01:53:14.889Z,100015.45
2023-04-24T01:55:45.018Z,100011.26
2023-04-24T01:58:16.277Z,100008.80
2023-04-24T02:00:46.438Z,100013.02
2023-04-24T02:03:17.359Z,100019.04
2023-04-24T02:05:47.234Z,100011.19
2023-04-24T02:08:17.352Z,100009.91
2023-04-24T02:10:47.465Z,100007.73
2023-04-24T02:13:17.592Z,100016.91
2023-04-24T02:15:47.432Z,100012.60
2023-04-24T02:18:17.790Z,100013.09
2023-04-24T02:20:47.592Z,100013.09
2023-04-24T02:23:17.734Z,100015.68
2023-04-24T02:25:48.231Z,100014.44
2023-04-24T02:28:20.148Z,100009.20
2023-04-24T02:30:49.948Z,100016.03
2023-04-24T02:33:20.146Z,100012.50
2023-04-24T02:35:50.036Z,100019.31
2023-04-24T02:38:20.271Z,100014.03
2023-04-24T02:40:50.135Z,100006.34
2023-04-24T02:43:20.255Z,100009.61
2023-04-24T02:45:50.233Z,100010.45
2023-04-24T02:48:21.760Z,100008.20
2023-04-24T02:50:51.997Z,100007.23
2023-04-24T02:53:22.182Z,100011.82
2023-04-24T02:55:52.013Z,100010.33
2023-04-24T02:58:22.193Z,100010.56
2023-04-24T03:00:59.207Z,100011.17
2023-04-24T03:03:29.236Z,100009.57
2023-04-24T03:05:59.748Z,100016.56
2023-04-24T03:08:29.573Z,100023.08
2023-04-24T03:10:59.447Z,100012.68
2023-04-24T03:13:29.265Z,100011.73
2023-04-24T03:15:59.182Z,100008.73
2023-04-24T03:18:29.624Z,100019.41
2023-04-24T03:21:00.339Z,100025.66
2023-04-24T03:23:30.501Z,100019.30
2023-04-24T03:26:00.542Z,100021.62
2023-04-24T03:28:30.491Z,100022.33
2023-04-24T03:31:02.318Z,100023.20
2023-04-24T03:33:33.844Z,100026.13
2023-04-24T03:36:04.289Z,100025.41
2023-04-24T03:38:41.473Z,100025.41
2023-04-24T03:41:18.787Z,100026.19
2023-04-24T03:43:50.540Z,100029.08
2023-04-24T03:46:21.364Z,100023.53
2023-04-24T03:48:52.924Z,100027.52
2023-04-24T03:51:24.523Z,100028.69
2023-04-24T03:53:56.367Z,100028.72
2023-04-24T03:56:26.683Z,100022.66
2023-04-24T03:58:56.501Z,100023.27
2023-04-24T04:01:26.547Z,100022.81
2023-04-24T04:04:01.147Z,100027.73
2023-04-24T04:06:35.425Z,100019.56
2023-04-24T04:09:05.571Z,100020.02
2023-04-24T04:11:36.328Z,100026.15
2023-04-24T04:14:06.362Z,100021.49
2023-04-24T04:16:37.551Z,100027.66
2023-04-24T04:19:08.520Z,100025.42
2023-04-24T04:21:38.498Z,100025.42
2023-04-24T04:24:12.786Z,100020.47
2023-04-24T04:26:46.254Z,100020.17
2023-04-24T04:29:18.737Z,100016.64
2023-04-24T04:31:49.309Z,100016.89
2023-04-24T04:34:19.393Z,100017.13
2023-04-24T04:36:49.236Z,100020.75
2023-04-24T04:39:32.759Z,100019.62
2023-04-24T04:42:04.838Z,100013.36
2023-04-24T04:44:36.920Z,100017.70
2023-04-24T04:47:07.544Z,100018.92
2023-04-24T04:49:39.906Z,100024.22
2023-04-24T04:52:12.191Z,100019.67
2023-04-24T04:54:42.292Z,100023.65
2023-04-24T04:57:13.013Z,100017.33
2023-04-24T04:59:43.350Z,100024.36
2023-04-24T05:02:15.111Z,100037.23
2023-04-24T05:04:46.362Z,100036.20
2023-04-24T05:07:16.955Z,100048.64
2023-04-24T05:09:48.513Z,100042.73
2023-04-24T05:12:18.406Z,100040.52
2023-04-24T05:14:50.885Z,100041.13
2023-04-24T05:17:20.784Z,100047.83
2023-04-24T05:19:50.443Z,100041.63
2023-04-24T05:22:21.915Z,100053.58
2023-04-24T05:24:54.158Z,100051.16
2023-04-24T05:27:42.210Z,100051.45
2023-04-24T05:30:14.634Z,100054.25
2023-04-24T05:32:44.660Z,100058.38
2023-04-24T05:35:14.257Z,100064.74
2023-04-24T05:37:44.144Z,100053.27
2023-04-24T05:40:14.472Z,100064.09
2023-04-24T05:42:45.192Z,100063.11
2023-04-24T05:45:16.649Z,100075.34
2023-04-24T05:47:46.643Z,100075.34
2023-04-24T05:50:17.448Z,100075.34
2023-04-24T05:52:47.455Z,100075.83
2023-04-24T05:55:19.456Z,100073.90
2023-04-24T05:57:49.430Z,100075.64
2023-04-24T06:00:20.778Z,100083.09
2023-04-24T06:02:53.975Z,100081.58
2023-04-24T06:05:24.557Z,100082.64
2023-04-24T06:07:55.969Z,100084.26
2023-04-24T06:10:27.483Z,100084.23
2023-04-24T06:12:58.975Z,100090.17
2023-04-24T06:15:31.925Z,100096.98
2023-04-24T06:18:06.456Z,100115.50
2023-04-24T06:20:36.369Z,100115.50
2023-04-24T06:23:06.220Z,100123.50
2023-04-24T06:25:36.426Z,100123.58
2023-04-24T06:28:07.049Z,100138.16
2023-04-24T06:30:38.474Z,100137.90
2023-04-24T06:33:19.615Z,100146.73
2023-04-24T06:35:39.992Z,100156.64
2023-04-24T06:38:09.599Z,100167.31
2023-04-24T06:40:40.102Z,100163.64
2023-04-24T06:43:10.602Z,100168.81
2023-04-24T06:45:41.263Z,100179.58
2023-04-24T06:48:11.864Z,100190.60
2023-04-24T06:50:41.729Z,100195.89
2023-04-24T06:53:13.170Z,100209.05
2023-04-24T06:55:44.208Z,100208.45
2023-04-24T06:58:14.703Z,100207.95
2023-04-24T07:00:44.484Z,100219.03
2023-04-24T07:03:14.486Z,100223.42
2023-04-24T07:05:44.417Z,100217.23
2023-04-24T07:08:17.407Z,100219.29
2023-04-24T07:10:47.202Z,100226.30
2023-04-24T07:13:17.302Z,100224.13
2023-04-24T07:15:47.194Z,100232.91
2023-04-24T07:18:17.333Z,100221.61
2023-04-24T07:20:47.517Z,100230.70
2023-04-24T07:23:17.584Z,100238.35
2023-04-24T07:25:47.891Z,100240.77
2023-04-24T07:28:18.935Z,100253.05
2023-04-24T07:30:48.794Z,100259.64
2023-04-24T07:33:18.758Z,100261.84
2023-04-24T07:35:48.624Z,100273.34
2023-04-24T07:38:20.178Z,100276.50
2023-04-24T07:40:50.533Z,100285.95
2023-04-24T07:43:22.357Z,100306.75
2023-04-24T07:45:53.046Z,100303.92
2023-04-24T07:48:23.208Z,100317.65
2023-04-24T07:50:53.016Z,100330.73
2023-04-24T07:53:22.960Z,100336.27
2023-04-24T07:55:52.796Z,100336.27
2023-04-24T07:58:22.674Z,100359.92
2023-04-24T08:00:53.197Z,100363.91
2023-04-24T08:03:22.963Z,100369.99
2023-04-24T08:05:53.319Z,100376.78
2023-04-24T08:08:24.902Z,100385.98
2023-04-24T08:10:55.825Z,100392.52
2023-04-24T08:13:25.919Z,100401.50
2023-04-24T08:15:56.205Z,100407.16
2023-04-24T08:18:25.839Z,100407.16
2023-04-24T08:20:55.799Z,100413.44
2023-04-24T08:23:25.699Z,100429.05
2023-04-24T08:25:55.936Z,100426.56
2023-04-24T08:28:25.661Z,100444.02
2023-04-24T08:33:28.122Z,100458.06
2023-04-24T08:35:58.262Z,100466.42
2023-04-24T08:38:27.863Z,100458.69
2023-04-24T08:41:00.387Z,100470.39
2023-04-24T08:43:30.617Z,100466.67
2023-04-24T08:46:01.253Z,100476.67
2023-04-24T08:48:32.404Z,100477.31
2023-04-24T08:51:03.229Z,100483.35
2023-04-24T08:53:34.799Z,100486.84
2023-04-24T08:56:05.711Z,100500.61
2023-04-24T08:58:36.093Z,100510.30
2023-04-24T09:01:07.230Z,100511.59
2023-04-24T09:03:37.853Z,100516.85
2023-04-24T09:06:11.392Z,100514.00
2023-04-24T09:08:42.966Z,100522.30
2023-04-24T09:11:13.398Z,100534.75
2023-04-24T09:13:45.048Z,100526.55
2023-04-24T09:16:15.755Z,100535.97
2023-04-24T09:18:45.633Z,100551.12
2023-04-24T09:21:15.684Z,100569.55
2023-04-24T09:23:45.950Z,100555.28
2023-04-24T09:26:15.920Z,100554.59
2023-04-24T09:28:47.074Z,100560.62
2023-04-24T09:31:19.677Z,100562.45
2023-04-24T09:34:02.311Z,100570.41
2023-04-24T09:36:40.197Z,100586.59
2023-04-24T09:39:16.370Z,100593.47
2023-04-24T09:41:48.094Z,100593.47
2023-04-24T09:44:19.398Z,100600.63
2023-04-24T09:46:55.636Z,100613.73
2023-04-24T09:49:29.423Z,100615.51
2023-04-24T09:52:13.191Z,100622.11
2023-04-24T09:54:43.117Z,100626.04
2023-04-24T09:57:12.969Z,100625.09
2023-04-24T09:59:47.821Z,100627.13
2023-04-24T10:02:23.569Z,100625.22
2023-04-24T10:05:01.454Z,100638.12
2023-04-24T10:07:33.170Z,100623.44
2023-04-24T10:10:03.307Z,100625.45
2023-04-24T10:12:33.586Z,100630.73
2023-04-24T10:15:04.157Z,100627.23
2023-04-24T10:17:34.390Z,100641.04
2023-04-24T10:20:08.132Z,100641.75
2023-04-24T10:22:38.868Z,100637.76
2023-04-24T10:25:09.261Z,100644.41
2023-04-24T10:27:39.865Z,100662.55
2023-04-24T10:30:11.062Z,100658.98
2023-04-24T10:32:41.028Z,100654.58
2023-04-24T10:35:11.922Z,100664.98
2023-04-24T10:38:08.654Z,100665.38
2023-04-24T10:40:38.901Z,100674.61
2023-04-24T10:43:13.270Z,100676.87
2023-04-24T10:45:43.142Z,100672.75
2023-04-24T10:48:14.902Z,100690.68
2023-04-24T10:50:48.533Z,100696.02
2023-04-24T10:53:21.263Z,100701.69
2023-04-24T10:56:02.599Z,100708.86
2023-04-24T10:58:41.654Z,100707.89
2023-04-24T11:01:13.013Z,100703.22
2023-04-24T11:03:47.755Z,100711.87
2023-04-24T11:06:17.740Z,100708.75
2023-04-24T11:08:50.034Z,100716.16
2023-04-24T11:11:22.226Z,100716.69
2023-04-24T11:14:00.965Z,100715.02
2023-04-24T11:16:39.952Z,100716.89
2023-04-24T11:19:12.201Z,100715.63
2023-04-24T11:21:44.499Z,100724.87
2023-04-24T11:24:43.497Z,100729.67
2023-04-24T11:27:20.919Z,100724.55
2023-04-24T11:30:05.377Z,100738.13
2023-04-24T11:32:38.457Z,100741.92
2023-04-24T11:35:26.118Z,100739.13
2023-04-24T11:40:28.223Z,100750.34
2023-04-24T11:42:58.196Z,100760.93
2023-04-24T11:45:31.034Z,100760.78
2023-04-24T11:48:01.024Z,100772.16
2023-04-24T11:50:31.249Z,100772.91
2023-04-24T11:53:01.446Z,100776.05
2023-04-24T11:55:31.762Z,100777.50
2023-04-24T11:58:02.523Z,100773.25
2023-04-24T12:00:37.657Z,100771.38
2023-04-24T12:03:10.190Z,100772.13
2023-04-24T12:05:41.460Z,100769.52
2023-04-24T12:08:12.577Z,100775.75
2023-04-24T12:10:42.363Z,100781.90
2023-04-24T12:13:12.710Z,100782.53
2023-04-24T12:15:43.281Z,100782.27
2023-04-24T12:18:14.846Z,100794.69
2023-04-24T12:20:44.683Z,100792.93
2023-04-24T12:23:14.277Z,100804.05
2023-04-24T12:25:44.113Z,100810.88
2023-04-24T12:28:15.139Z,100803.17
2023-04-24T12:30:46.647Z,100811.09
2023-04-24T12:33:21.490Z,100813.55
2023-04-24T12:35:56.474Z,100821.91
2023-04-24T12:38:30.489Z,100831.31
2023-04-24T12:41:12.014Z,100834.08
2023-04-24T12:43:52.938Z,100834.08
2023-04-24T12:46:23.029Z,100829.81
2023-04-24T12:48:52.973Z,100830.59
2023-04-24T12:51:22.882Z,100840.34
2023-04-24T12:53:56.065Z,100827.06
2023-04-24T12:56:25.368Z,100839.12
2023-04-24T12:58:55.353Z,100841.30
2023-04-24T13:01:25.312Z,100834.83
2023-04-24T13:03:55.935Z,100834.83
2023-04-24T13:06:27.280Z,100845.97
2023-04-24T13:08:58.845Z,100846.25
2023-04-24T13:11:29.006Z,100850.80
2023-04-24T13:13:58.795Z,100840.16
2023-04-24T13:16:28.759Z,100840.16
2023-04-24T13:18:58.566Z,100842.18
2023-04-24T13:21:28.439Z,100841.84
2023-04-24T13:23:58.371Z,100849.72
2023-04-24T13:26:28.149Z,100849.72
2023-04-24T13:28:57.965Z,100847.08
2023-04-24T13:31:27.844Z,100843.02
2023-04-24T13:33:57.707Z,100846.47
2023-04-24T13:36:27.781Z,100843.36
2023-04-24T13:38:57.621Z,100847.45
2023-04-24T13:41:27.572Z,100856.56
2023-04-24T13:43:57.772Z,100847.38
2023-04-24T13:46:28.051Z,100849.98
2023-04-24T13:48:58.461Z,100855.41
2023-04-24T13:51:28.724Z,100852.38
2023-04-24T13:53:58.354Z,100863.08
2023-04-24T13:56:28.498Z,100878.95
2023-04-24T13:58:58.848Z,100879.11
2023-04-24T14:01:28.764Z,100883.72
2023-04-24T14:03:59.119Z,100881.67
2023-04-24T14:06:29.109Z,100888.11
2023-04-24T14:08:59.018Z,100885.21
2023-04-24T14:11:29.384Z,100872.30
2023-04-24T14:13:59.294Z,100872.30
2023-04-24T14:16:30.196Z,100889.53
2023-04-24T14:19:00.242Z,100896.48
2023-04-24T14:21:30.076Z,100888.79
2023-04-24T14:23:59.873Z,100889.86
2023-04-24T14:26:29.806Z,100889.86
2023-04-24T14:29:11.535Z,100885.02
2023-04-24T14:31:31.825Z,100883.82
2023-04-24T14:34:01.982Z,100883.82
2023-04-24T14:36:32.556Z,100878.72
2023-04-24T14:39:04.234Z,100898.47
2023-04-24T14:41:36.827Z,100891.77
2023-04-24T14:44:08.181Z,100884.37
2023-04-24T14:46:38.057Z,100883.18
2023-04-24T14:49:09.577Z,100883.18
2023-04-24T14:51:40.105Z,100899.05
2023-04-24T14:54:11.317Z,100899.05
2023-04-24T14:56:41.958Z,100903.09
2023-04-24T14:59:12.298Z,100902.70
2023-04-24T15:01:42.118Z,100916.38
2023-04-24T15:04:11.917Z,100915.02
2023-04-24T15:06:41.784Z,100921.67
2023-04-24T15:09:11.599Z,100927.14
2023-04-24T15:11:41.551Z,100927.14
2023-04-24T15:14:12.326Z,100926.04
2023-04-24T15:16:42.782Z,100925.81
2023-04-24T15:19:12.744Z,100931.94
2023-04-24T15:21:43.576Z,100921.93
2023-04-24T15:24:13.073Z,100923.38
2023-04-24T15:26:42.923Z,100916.48
2023-04-24T15:29:12.798Z,100925.88
2023-04-24T15:31:42.889Z,100924.81
2023-04-24T15:34:12.745Z,100929.38
2023-04-24T15:36:42.865Z,100924.10
2023-04-24T15:39:12.857Z,100925.91
2023-04-24T15:41:42.708Z,100924.95
2023-04-24T15:44:12.249Z,100922.01
2023-04-24T15:46:42.165Z,100930.00
2023-04-24T15:49:12.169Z,100929.34
2023-04-24T15:51:42.469Z,100931.42
2023-04-24T15:54:12.023Z,100933.14
2023-04-24T15:56:41.843Z,100941.28
2023-04-24T15:59:11.841Z,100943.98
2023-04-24T16:01:41.911Z,100941.20
2023-04-24T16:04:12.221Z,100940.85
2023-04-24T16:06:42.544Z,100948.85
2023-04-24T16:09:13.481Z,100937.90
2023-04-24T16:11:44.479Z,100937.90
2023-04-24T16:14:14.318Z,100946.13
2023-04-24T16:16:44.482Z,100943.50
2023-04-24T16:19:14.681Z,100939.39
2023-04-24T16:21:44.536Z,100937.20
2023-04-24T16:24:14.495Z,100937.95
2023-04-24T16:26:44.859Z,100945.16
2023-04-24T16:29:15.496Z,100941.61
2023-04-24T16:31:45.666Z,100947.56
2023-04-24T16:34:15.664Z,100944.34
2023-04-24T16:36:45.739Z,100938.48
2023-04-24T16:39:15.355Z,100941.31
2023-04-24T16:41:45.343Z,100950.33
2023-04-24T16:44:14.952Z,100939.89
2023-04-24T16:46:44.956Z,100952.22
2023-04-24T16:49:15.148Z,100953.58
2023-04-24T16:51:45.453Z,100958.74
2023-04-24T16:54:15.036Z,100954.52
2023-04-24T16:56:45.030Z,100954.63
2023-04-24T16:59:15.012Z,100963.98
2023-04-24T17:01:45.015Z,100972.44
2023-04-24T17:04:15.157Z,100969.20
2023-04-24T17:06:45.093Z,100970.88
2023-04-24T17:09:15.761Z,100977.13
2023-04-24T17:11:45.668Z,100973.66
2023-04-24T17:14:15.255Z,100970.91
2023-04-24T17:16:46.078Z,100969.35
2023-04-24T17:19:16.178Z,100977.13
2023-04-24T17:21:46.362Z,100977.27
2023-04-24T17:24:16.104Z,100983.32
2023-04-24T17:26:46.179Z,100981.66
2023-04-24T17:29:16.124Z,100982.49
2023-04-24T17:31:46.397Z,100979.82
2023-04-24T17:34:16.128Z,100979.82
2023-04-24T17:36:46.068Z,100980.88
2023-04-24T17:39:16.642Z,100984.48
2023-04-24T17:41:46.555Z,100985.87
2023-04-24T17:44:16.385Z,100989.44
2023-04-24T17:46:46.676Z,100994.33
2023-04-24T17:49:16.276Z,100993.47
2023-04-24T17:51:46.218Z,100990.42
2023-04-24T17:56:42.364Z,100988.01
2023-04-24T17:59:12.295Z,100993.44
2023-04-24T18:01:42.274Z,100994.88
2023-04-24T18:04:12.172Z,100996.22
2023-04-24T18:06:42.262Z,100996.97
2023-04-24T18:09:12.870Z,101001.34
2023-04-24T18:11:42.978Z,100999.06
2023-04-24T18:14:12.858Z,101008.57
2023-04-24T18:16:42.678Z,100967.13
2023-04-24T18:19:12.820Z,100967.13
2023-04-24T18:21:42.421Z,101003.75
2023-04-24T18:24:12.345Z,101010.20
2023-04-24T18:26:42.310Z,101017.94
2023-04-24T18:29:12.175Z,101009.49
2023-04-24T18:31:42.116Z,101010.64
2023-04-24T18:34:11.951Z,101013.19
2023-04-24T18:36:41.740Z,101017.02
2023-04-24T18:39:11.551Z,101016.42
2023-04-24T18:41:41.450Z,101010.45
2023-04-24T18:44:11.956Z,101022.70
2023-04-24T18:46:41.823Z,101020.50
2023-04-24T18:49:11.746Z,101017.58
2023-04-24T18:51:53.240Z,101020.95
2023-04-24T18:54:13.147Z,101026.95
2023-04-24T18:56:42.994Z,101033.00
2023-04-24T18:59:12.792Z,101033.97
2023-04-24T19:01:42.765Z,101037.45
2023-04-24T19:04:13.709Z,101044.78
2023-04-24T19:06:43.599Z,101050.31
2023-04-24T19:09:14.484Z,101049.14
2023-04-24T19:11:44.730Z,101055.88
2023-04-24T19:14:16.101Z,101055.88
2023-04-24T19:16:46.201Z,101060.23
2023-04-24T19:19:16.113Z,101064.23
2023-04-24T19:21:47.340Z,101064.55
2023-04-24T19:24:18.947Z,101064.55
2023-04-24T19:26:49.108Z,101063.70
2023-04-24T19:29:18.937Z,101065.06
2023-04-24T19:31:48.821Z,101078.81
2023-04-24T19:34:18.650Z,101072.05
2023-04-24T19:36:48.184Z,101072.51
2023-04-24T19:39:17.969Z,101083.61
2023-04-24T19:41:47.842Z,101083.00
2023-04-24T19:44:17.656Z,101080.45
2023-04-24T19:46:48.240Z,101079.16
2023-04-24T19:49:18.320Z,101084.70
2023-04-24T19:51:48.204Z,101084.94
2023-04-24T19:54:19.809Z,101082.19
2023-04-24T19:56:49.680Z,101081.88
2023-04-24T19:59:19.488Z,101095.64
2023-04-24T20:01:50.810Z,101088.63
2023-04-24T20:04:22.740Z,101094.22
2023-04-24T20:06:52.730Z,101088.08
2023-04-24T20:09:22.842Z,101089.44
2023-04-24T20:11:53.583Z,101091.70
2023-04-24T20:14:23.271Z,101090.14
2023-04-24T20:16:54.327Z,101096.94
2023-04-24T20:19:24.128Z,101095.39
2023-04-24T20:21:54.689Z,101089.75
2023-04-24T20:24:24.222Z,101094.83
2023-04-24T20:26:53.997Z,101088.74
2023-04-24T20:29:23.860Z,101095.97
2023-04-24T20:31:54.149Z,101095.97
2023-04-24T20:34:24.553Z,101091.94
2023-04-24T20:36:56.013Z,101094.63
2023-04-24T20:39:26.626Z,101086.50
2023-04-24T20:41:58.235Z,101087.40
2023-04-24T20:44:27.936Z,101090.27
2023-04-24T20:46:57.793Z,101094.42
2023-04-24T20:49:27.378Z,101092.73
2023-04-24T20:51:59.097Z,101091.85
2023-04-24T20:54:28.863Z,101093.48
2023-04-24T20:56:58.647Z,101090.95
2023-04-24T20:59:29.022Z,101090.95
2023-04-24T21:01:59.157Z,101097.55
2023-04-24T21:04:29.077Z,101094.84
2023-04-24T21:06:58.926Z,101095.67
2023-04-24T21:09:28.796Z,101097.37
2023-04-24T21:11:59.075Z,101091.05
2023-04-24T21:14:28.907Z,101101.95
2023-04-24T21:16:59.887Z,101100.03
2023-04-24T21:19:29.891Z,101101.70
2023-04-24T21:22:00.615Z,101101.43
2023-04-24T21:24:30.800Z,101102.58
2023-04-24T21:27:01.191Z,101100.41
2023-04-24T21:29:31.088Z,101101.95
2023-04-24T21:32:01.237Z,101101.95
2023-04-24T21:34:30.998Z,101095.69
2023-04-24T21:37:00.803Z,101092.02
2023-04-24T21:39:30.633Z,101097.78
2023-04-24T21:42:00.501Z,101087.98
2023-04-24T21:44:30.633Z,101080.52
2023-04-24T21:47:00.871Z,101085.09
2023-04-24T21:49:30.689Z,101089.31
2023-04-24T21:52:00.544Z,101093.77
2023-04-24T21:54:30.329Z,101093.77
2023-04-24T21:57:02.196Z,101093.48
2023-04-24T21:59:32.150Z,101091.00
2023-04-24T22:02:01.697Z,101087.95
2023-04-24T22:04:31.676Z,101092.72
2023-04-24T22:07:01.754Z,101094.92
2023-04-24T22:09:31.853Z,101098.48
2023-04-24T22:12:01.691Z,101094.11
2023-04-24T22:14:31.292Z,101094.45
2023-04-24T22:17:01.118Z,101094.48
2023-04-24T22:19:30.925Z,101092.83
2023-04-24T22:22:00.815Z,101098.08
2023-04-24T22:24:30.682Z,101098.37
2023-04-24T22:27:00.500Z,101098.19
2023-04-24T22:29:31.503Z,101101.23
2023-04-24T22:32:01.529Z,101091.03
2023-04-24T22:34:31.638Z,101099.47
2023-04-24T22:37:01.845Z,101105.81
2023-04-24T22:39:31.630Z,101103.42
2023-04-24T22:42:01.931Z,101096.83
2023-04-24T22:44:31.830Z,101094.52
2023-04-24T22:47:03.303Z,101098.34
2023-04-24T22:49:34.830Z,101094.70
2023-04-24T22:52:06.410Z,101094.08
2023-04-24T22:54:36.258Z,101091.44
2023-04-24T22:57:06.250Z,101088.84
2023-04-24T22:59:36.186Z,101094.12
2023-04-24T23:02:07.972Z,101094.96
2023-04-24T23:04:37.819Z,101094.96
2023-04-24T23:07:07.613Z,101083.66
2023-04-24T23:09:37.200Z,101080.03
2023-04-24T23:12:09.563Z,101082.19
2023-04-24T23:14:39.652Z,101077.77
2023-04-24T23:17:09.814Z,101074.87
2023-04-24T23:19:39.678Z,101073.63
2023-04-24T23:22:11.368Z,101079.52
2023-04-24T23:24:41.326Z,101079.52
2023-04-24T23:27:11.360Z,101103.53
2023-04-24T23:29:41.191Z,101116.33
2023-04-24T23:32:11.557Z,101115.91
2023-04-24T23:34:41.457Z,101116.94
2023-04-24T23:37:12.308Z,101120.16
2023-04-24T23:39:42.087Z,101121.85
2023-04-24T23:42:12.927Z,101129.14
2023-04-24T23:44:42.840Z,101129.14
2023-04-24T23:47:12.729Z,101122.48
2023-04-24T23:49:42.885Z,101127.47
2023-04-24T23:52:12.750Z,101123.23
2023-04-24T23:54:42.903Z,101120.61
2023-04-24T23:57:12.722Z,101120.61
2023-04-24T23:59:42.532Z,101124.48
